createdAt,value
2018-07-30T00:00:05.088Z,96.00
2018-07-30T00:02:32.324Z,95.70
2018-07-30T00:04:59.427Z,96.00
2018-07-30T00:07:26.635Z,96.30
2018-07-30T00:09:53.808Z,96.40
2018-07-30T00:12:20.915Z,96.10
2018-07-30T00:14:48.075Z,96.10
2018-07-30T00:17:15.181Z,96.40
2018-07-30T00:19:42.365Z,96.80
2018-07-30T00:22:09.560Z,97.30
2018-07-30T00:24:37.200Z,97.50
2018-07-30T00:29:31.475Z,97.70
2018-07-30T00:31:58.778Z,98.00
2018-07-30T00:34:25.927Z,98.40
2018-07-30T00:36:53.056Z,98.80
2018-07-30T00:39:20.192Z,99.00
2018-07-30T00:41:47.330Z,99.00
2018-07-30T00:44:14.495Z,99.60
2018-07-30T00:46:41.654Z,99.80
2018-07-30T00:49:08.778Z,99.80
2018-07-30T00:51:35.975Z,99.90
2018-07-30T00:56:30.259Z,99.90
2018-07-30T00:58:57.416Z,99.90
2018-07-30T01:01:24.516Z,99.70
2018-07-30T01:03:51.694Z,99.40
2018-07-30T01:06:18.832Z,99.30
2018-07-30T01:08:46.168Z,99.40
2018-07-30T01:11:13.317Z,99.60
2018-07-30T01:13:40.461Z,99.80
2018-07-30T01:21:01.879Z,99.90
2018-07-30T01:23:29.026Z,99.90
2018-07-30T01:25:56.128Z,99.90
2018-07-30T01:28:23.900Z,99.90
2018-07-30T01:30:51.129Z,99.90
2018-07-30T01:33:18.316Z,99.90
2018-07-30T01:35:45.465Z,99.90
2018-07-30T01:38:12.611Z,99.90
2018-07-30T01:40:39.713Z,99.90
2018-07-30T01:43:06.956Z,99.90
2018-07-30T01:45:34.091Z,99.90
2018-07-30T01:48:01.215Z,99.90
2018-07-30T01:50:28.324Z,99.90
2018-07-30T01:52:55.386Z,99.90
2018-07-30T01:55:22.551Z,99.90
2018-07-30T01:57:49.700Z,99.90
2018-07-30T02:00:16.973Z,99.90
2018-07-30T02:07:39.412Z,99.90
2018-07-30T02:10:07.465Z,99.90
2018-07-30T02:12:34.683Z,99.90
2018-07-30T02:15:01.851Z,99.90
2018-07-30T02:19:56.155Z,99.90
2018-07-30T02:22:23.533Z,99.90
2018-07-30T02:24:50.991Z,99.90
2018-07-30T02:27:18.318Z,99.90
2018-07-30T02:29:45.619Z,99.90
2018-07-30T02:32:12.788Z,99.90
2018-07-30T02:34:39.881Z,99.90
2018-07-30T02:37:07.094Z,99.90
2018-07-30T02:42:01.388Z,99.90
2018-07-30T02:46:55.779Z,99.90
2018-07-30T02:49:22.979Z,99.90
2018-07-30T02:51:50.109Z,99.90
2018-07-30T02:54:17.298Z,99.90
2018-07-30T02:56:44.403Z,99.90
2018-07-30T02:59:11.562Z,99.90
2018-07-30T03:01:38.694Z,99.90
2018-07-30T03:04:05.845Z,99.90
2018-07-30T03:11:27.253Z,99.90
2018-07-30T03:13:55.432Z,99.90
2018-07-30T03:16:22.528Z,99.90
2018-07-30T03:18:49.660Z,99.90
2018-07-30T03:21:16.817Z,99.90
2018-07-30T03:23:43.940Z,99.90
2018-07-30T03:26:11.149Z,99.90
2018-07-30T03:28:38.285Z,99.90
2018-07-30T03:31:05.455Z,99.90
2018-07-30T03:33:32.628Z,99.90
2018-07-30T03:35:59.833Z,99.90
2018-07-30T03:38:27.014Z,99.90
2018-07-30T03:40:54.197Z,99.90
2018-07-30T03:43:21.932Z,99.90
2018-07-30T03:45:49.078Z,99.90
2018-07-30T03:48:16.896Z,99.90
2018-07-30T03:50:44.071Z,99.90
2018-07-30T03:53:11.414Z,99.90
2018-07-30T03:55:38.578Z,99.90
2018-07-30T03:58:05.962Z,99.90
2018-07-30T04:00:33.102Z,99.90
2018-07-30T04:03:00.242Z,99.90
2018-07-30T04:05:27.464Z,99.90
2018-07-30T04:07:54.703Z,99.90
2018-07-30T04:10:21.780Z,99.90
2018-07-30T04:12:48.916Z,99.90
2018-07-30T04:15:16.036Z,99.90
2018-07-30T04:17:43.201Z,99.90
2018-07-30T04:20:10.355Z,99.90
2018-07-30T04:22:37.545Z,99.90
2018-07-30T04:25:04.844Z,99.90
2018-07-30T04:27:32.062Z,99.90
2018-07-30T04:29:59.180Z,99.90
2018-07-30T04:32:26.379Z,99.90
2018-07-30T04:34:53.605Z,99.90
2018-07-30T04:37:20.981Z,99.90
2018-07-30T04:39:48.120Z,99.90
2018-07-30T04:42:15.296Z,99.90
2018-07-30T04:44:42.498Z,99.90
2018-07-30T04:49:36.814Z,99.90
2018-07-30T04:52:04.054Z,99.90
2018-07-30T04:54:31.282Z,99.90
2018-07-30T04:56:58.941Z,99.90
2018-07-30T04:59:26.094Z,99.90
2018-07-30T05:01:53.242Z,99.90
2018-07-30T05:04:20.397Z,99.90
2018-07-30T05:06:47.546Z,99.90
2018-07-30T05:09:15.428Z,99.90
2018-07-30T05:11:43.130Z,99.90
2018-07-30T05:14:10.340Z,99.90
2018-07-30T05:16:37.471Z,99.90
2018-07-30T05:19:04.628Z,99.90
2018-07-30T05:21:31.796Z,99.90
2018-07-30T05:31:21.373Z,99.90
2018-07-30T05:33:48.571Z,99.90
2018-07-30T05:36:16.169Z,99.90
2018-07-30T05:41:10.674Z,99.90
2018-07-30T05:43:37.980Z,99.90
2018-07-30T05:46:05.352Z,99.90
2018-07-30T05:48:32.880Z,99.90
2018-07-30T05:51:00.121Z,99.90
2018-07-30T05:53:27.271Z,99.90
2018-07-30T05:55:54.531Z,99.90
2018-07-30T05:58:21.683Z,99.90
2018-07-30T06:00:48.892Z,99.90
2018-07-30T06:03:16.126Z,99.90
2018-07-30T06:05:43.348Z,99.90
2018-07-30T06:08:10.556Z,99.90
2018-07-30T06:10:38.322Z,99.90
2018-07-30T06:13:05.482Z,99.90
2018-07-30T06:15:33.347Z,99.90
2018-07-30T06:37:11.068Z,99.90
2018-07-30T06:39:38.287Z,99.90
2018-07-30T06:42:05.520Z,99.90
2018-07-30T06:44:32.690Z,99.90
2018-07-30T06:47:00.069Z,99.90
2018-07-30T06:49:27.425Z,99.90
2018-07-30T06:51:54.607Z,99.90
2018-07-30T06:54:21.854Z,99.90
2018-07-30T06:56:49.147Z,99.90
2018-07-30T06:59:18.948Z,99.90
2018-07-30T07:01:46.253Z,99.20
2018-07-30T07:04:13.404Z,99.40
2018-07-30T07:06:40.718Z,99.00
2018-07-30T07:09:08.644Z,98.40
2018-07-30T07:11:36.346Z,98.20
2018-07-30T07:14:04.889Z,98.20
2018-07-30T07:16:32.108Z,97.80
2018-07-30T07:18:59.706Z,97.20
2018-07-30T07:21:27.018Z,97.00
2018-07-30T07:23:54.080Z,96.80
2018-07-30T07:26:21.240Z,96.70
2018-07-30T07:28:48.438Z,96.50
2018-07-30T07:31:16.442Z,96.00
2018-07-30T07:33:43.654Z,95.50
2018-07-30T07:36:10.858Z,95.30
2018-07-30T07:41:05.582Z,95.80
2018-07-30T07:43:32.721Z,95.40
2018-07-30T07:46:00.023Z,95.20
2018-07-30T07:48:28.142Z,95.30
2018-07-30T07:50:55.816Z,95.40
2018-07-30T07:53:22.942Z,95.50
2018-07-30T07:55:50.144Z,95.30
2018-07-30T07:58:17.344Z,95.30
2018-07-30T08:00:44.519Z,95.20
2018-07-30T08:03:11.738Z,95.30
2018-07-30T08:05:39.246Z,95.10
2018-07-30T08:08:07.106Z,94.60
2018-07-30T08:13:01.607Z,94.70
2018-07-30T08:20:24.001Z,94.70
2018-07-30T08:22:51.303Z,94.00
2018-07-30T08:25:18.820Z,94.10
2018-07-30T08:27:46.055Z,93.20
2018-07-30T08:35:09.512Z,93.10
2018-07-30T08:37:36.705Z,92.70
2018-07-30T08:42:31.763Z,92.10
2018-07-30T08:44:58.928Z,92.20
2018-07-30T08:47:26.108Z,91.80
2018-07-30T08:49:53.358Z,91.00
2018-07-30T08:52:20.544Z,91.20
2018-07-30T08:57:15.056Z,90.90
2018-07-30T08:59:42.272Z,90.80
2018-07-30T09:02:09.420Z,90.60
2018-07-30T09:04:37.331Z,90.80
2018-07-30T09:07:04.497Z,90.50
2018-07-30T09:09:31.726Z,90.00
2018-07-30T09:11:58.934Z,88.90
2018-07-30T09:14:26.110Z,89.70
2018-07-30T09:16:53.664Z,89.10
2018-07-30T09:19:21.513Z,87.00
2018-07-30T09:21:48.674Z,87.00
2018-07-30T09:24:15.805Z,86.30
2018-07-30T09:26:43.683Z,85.80
2018-07-30T09:45:53.500Z,80.90
2018-07-30T09:48:21.484Z,80.00
2018-07-30T09:55:43.110Z,77.90
2018-07-30T09:58:10.290Z,76.40
2018-07-30T10:00:43.253Z,76.50
2018-07-30T10:03:10.378Z,74.70
2018-07-30T10:05:37.545Z,74.70
2018-07-30T10:08:04.728Z,73.70
2018-07-30T10:10:31.920Z,73.00
2018-07-30T10:12:59.383Z,72.70
2018-07-30T10:15:26.564Z,71.80
2018-07-30T10:17:54.506Z,68.40
2018-07-30T10:20:21.783Z,67.10
2018-07-30T10:22:50.308Z,67.90
2018-07-30T10:25:18.253Z,68.10
2018-07-30T10:27:45.443Z,67.40
2018-07-30T10:30:12.737Z,67.80
2018-07-30T10:32:41.121Z,68.40
2018-07-30T10:35:09.289Z,67.40
2018-07-30T10:37:36.576Z,66.70
2018-07-30T10:40:03.950Z,65.50
2018-07-30T10:42:31.217Z,64.50
2018-07-30T10:47:25.704Z,63.20
2018-07-30T10:49:59.555Z,62.10
2018-07-30T10:52:27.049Z,62.70
2018-07-30T10:54:54.460Z,61.00
2018-07-30T10:57:21.832Z,61.20
2018-07-30T10:59:49.255Z,61.00
2018-07-30T11:02:16.585Z,59.80
2018-07-30T11:04:43.854Z,58.20
2018-07-30T11:07:11.308Z,57.50
2018-07-30T11:09:38.593Z,56.90
2018-07-30T11:12:05.880Z,56.00
2018-07-30T11:14:33.132Z,55.80
2018-07-30T11:17:00.612Z,55.90
2018-07-30T11:19:27.794Z,55.60
2018-07-30T11:21:55.649Z,55.80
2018-07-30T11:24:22.904Z,55.70
2018-07-30T11:26:50.669Z,55.70
2018-07-30T11:29:18.319Z,55.50
2018-07-30T11:31:45.517Z,55.70
2018-07-30T11:34:12.689Z,54.20
2018-07-30T11:36:39.963Z,53.80
2018-07-30T11:39:08.465Z,53.60
2018-07-30T11:41:36.439Z,53.70
2018-07-30T11:44:03.628Z,52.70
2018-07-30T11:46:30.916Z,52.80
2018-07-30T11:48:58.871Z,53.10
2018-07-30T11:53:53.639Z,54.00
2018-07-30T11:56:21.815Z,53.10
2018-07-30T11:58:49.593Z,52.60
2018-07-30T12:01:16.831Z,52.20
2018-07-30T12:03:44.084Z,52.50
2018-07-30T12:06:12.181Z,52.20
2018-07-30T12:11:07.103Z,52.10
2018-07-30T12:13:34.479Z,51.00
2018-07-30T12:16:01.842Z,51.90
2018-07-30T12:18:29.143Z,51.90
2018-07-30T12:20:57.036Z,51.60
2018-07-30T12:23:24.203Z,50.90
2018-07-30T12:25:51.430Z,50.80
2018-07-30T12:28:18.997Z,50.80
2018-07-30T12:30:46.725Z,50.40
2018-07-30T12:33:13.998Z,50.20
2018-07-30T12:35:41.248Z,50.10
2018-07-30T12:38:09.281Z,50.20
2018-07-30T12:43:04.769Z,49.80
2018-07-30T12:45:38.410Z,49.70
2018-07-30T12:48:05.876Z,49.20
2018-07-30T12:53:00.590Z,47.40
2018-07-30T12:57:55.152Z,47.10
2018-07-30T13:00:22.346Z,46.40
2018-07-30T13:05:17.434Z,45.00
2018-07-30T13:07:44.768Z,45.40
2018-07-30T13:10:13.515Z,45.40
2018-07-30T13:12:40.693Z,45.40
2018-07-30T13:15:10.584Z,45.40
2018-07-30T13:17:37.701Z,44.10
2018-07-30T13:20:05.708Z,43.10
2018-07-30T13:25:00.153Z,42.80
2018-07-30T13:27:27.313Z,42.50
2018-07-30T13:29:54.512Z,42.30
2018-07-30T13:32:21.920Z,41.90
2018-07-30T13:34:49.110Z,41.90
2018-07-30T13:37:16.460Z,42.20
2018-07-30T13:39:43.650Z,41.70
2018-07-30T13:42:10.907Z,41.10
2018-07-30T13:47:05.530Z,39.50
2018-07-30T13:49:34.291Z,40.40
2018-07-30T13:54:29.807Z,41.00
2018-07-30T13:56:57.161Z,41.40
2018-07-30T13:59:24.390Z,40.90
2018-07-30T14:01:52.771Z,41.00
2018-07-30T14:04:20.122Z,40.20
2018-07-30T14:06:47.462Z,40.50
2018-07-30T14:09:15.208Z,39.10
2018-07-30T14:11:42.503Z,39.60
2018-07-30T14:14:10.949Z,37.60
2018-07-30T14:16:38.808Z,38.10
2018-07-30T14:21:33.714Z,38.20
2018-07-30T14:24:01.010Z,37.90
2018-07-30T14:26:28.866Z,38.20
2018-07-30T14:28:56.378Z,38.00
2018-07-30T14:31:23.648Z,37.80
2018-07-30T14:33:50.850Z,37.40
2018-07-30T14:36:18.200Z,38.00
2018-07-30T14:38:45.340Z,38.30
2018-07-30T14:43:40.251Z,40.60
2018-07-30T14:46:07.454Z,39.10
2018-07-30T14:48:34.760Z,39.00
2018-07-30T14:53:31.094Z,37.60
2018-07-30T14:55:59.327Z,37.20
2018-07-30T14:58:26.644Z,36.60
2018-07-30T15:00:53.812Z,36.10
2018-07-30T15:03:21.363Z,35.90
2018-07-30T15:05:48.504Z,35.40
2018-07-30T15:08:16.012Z,36.20
2018-07-30T15:10:43.449Z,36.20
2018-07-30T15:13:10.730Z,36.30
2018-07-30T15:15:38.007Z,36.10
2018-07-30T15:18:05.688Z,37.00
2018-07-30T15:23:00.427Z,35.80
2018-07-30T15:25:28.994Z,35.70
2018-07-30T15:27:56.603Z,35.50
2018-07-30T15:30:24.244Z,36.00
2018-07-30T15:32:51.514Z,36.10
2018-07-30T15:35:19.416Z,36.00
2018-07-30T15:37:46.709Z,35.90
2018-07-30T15:40:13.891Z,36.40
2018-07-30T15:42:41.297Z,36.70
2018-07-30T15:47:35.733Z,36.70
2018-07-30T15:50:03.138Z,36.90
2018-07-30T15:52:30.366Z,37.00
2018-07-30T15:54:57.643Z,36.00
2018-07-30T15:57:25.506Z,36.00
2018-07-30T15:59:52.698Z,36.40
2018-07-30T16:04:48.352Z,37.10
2018-07-30T16:07:15.549Z,37.30
2018-07-30T16:12:10.994Z,37.60
2018-07-30T16:14:38.201Z,37.80
2018-07-30T16:17:08.891Z,38.20
2018-07-30T16:22:05.409Z,39.10
2018-07-30T16:24:32.924Z,39.50
2018-07-30T16:27:00.180Z,39.50
2018-07-30T16:29:27.486Z,39.30
2018-07-30T16:31:54.924Z,39.70
2018-07-30T16:34:22.283Z,39.70
2018-07-30T16:36:49.733Z,39.70
2018-07-30T16:39:18.324Z,39.80
2018-07-30T16:41:46.213Z,39.60
2018-07-30T16:44:14.271Z,39.20
2018-07-30T16:46:41.449Z,39.20
2018-07-30T16:49:09.927Z,38.50
2018-07-30T16:51:37.188Z,38.30
2018-07-30T16:54:04.808Z,38.00
2018-07-30T16:56:32.090Z,38.00
2018-07-30T16:58:59.324Z,37.70
2018-07-30T17:01:26.547Z,38.40
2018-07-30T17:03:54.867Z,38.80
2018-07-30T17:06:22.618Z,38.40
2018-07-30T17:08:50.826Z,38.00
2018-07-30T17:11:18.876Z,37.60
2018-07-30T17:13:46.105Z,37.70
2018-07-30T17:16:13.877Z,37.70
2018-07-30T17:18:41.145Z,37.60
2018-07-30T17:21:09.049Z,38.20
2018-07-30T17:23:36.340Z,37.70
2018-07-30T17:26:03.463Z,38.00
2018-07-30T17:28:30.767Z,37.60
2018-07-30T17:30:58.097Z,37.40
2018-07-30T17:33:26.003Z,37.00
2018-07-30T17:35:53.711Z,36.50
2018-07-30T17:38:22.046Z,37.40
2018-07-30T17:40:49.260Z,37.00
2018-07-30T17:43:16.495Z,37.00
2018-07-30T17:45:44.655Z,36.60
2018-07-30T17:48:11.896Z,36.50
2018-07-30T17:50:39.165Z,37.30
2018-07-30T17:53:06.546Z,38.20
2018-07-30T17:55:33.887Z,38.20
2018-07-30T17:58:01.177Z,38.40
2018-07-30T18:02:55.693Z,38.90
2018-07-30T18:05:22.959Z,38.90
2018-07-30T18:07:51.024Z,39.20
2018-07-30T18:10:18.765Z,39.10
2018-07-30T18:12:46.323Z,38.90
2018-07-30T18:15:13.563Z,39.30
2018-07-30T18:17:40.888Z,39.50
2018-07-30T18:20:08.314Z,39.40
2018-07-30T18:22:35.915Z,38.90
2018-07-30T18:25:04.424Z,39.00
2018-07-30T18:27:31.701Z,38.30
2018-07-30T18:29:59.104Z,37.80
2018-07-30T18:32:27.123Z,37.40
2018-07-30T18:34:54.961Z,37.60
2018-07-30T18:37:22.344Z,37.80
2018-07-30T18:39:49.865Z,38.30
2018-07-30T18:42:17.156Z,39.40
2018-07-30T18:47:11.692Z,40.50
2018-07-30T18:49:40.055Z,41.30
2018-07-30T18:52:08.011Z,41.50
2018-07-30T18:54:35.710Z,41.40
2018-07-30T18:57:03.183Z,41.80
2018-07-30T18:59:30.549Z,42.30
2018-07-30T19:01:57.836Z,42.80
2018-07-30T19:04:25.077Z,43.30
2018-07-30T19:06:52.454Z,43.30
2018-07-30T19:09:19.705Z,44.30
2018-07-30T19:11:46.883Z,44.70
2018-07-30T19:14:14.108Z,45.10
2018-07-30T19:16:41.395Z,45.40
2018-07-30T19:21:36.009Z,45.80
2018-07-30T19:26:30.596Z,46.50
2018-07-30T19:28:57.931Z,46.80
2018-07-30T19:31:27.826Z,47.10
2018-07-30T19:33:55.046Z,48.30
2018-07-30T19:38:51.541Z,48.80
2018-07-30T19:41:19.441Z,48.80
2018-07-30T19:43:46.922Z,49.10
2018-07-30T19:48:42.650Z,50.00
2018-07-30T19:53:38.970Z,50.10
2018-07-30T19:56:06.245Z,50.20
2018-07-30T20:01:00.883Z,50.30
2018-07-30T20:03:28.583Z,50.80
2018-07-30T20:05:56.280Z,51.10
2018-07-30T20:08:24.132Z,51.30
2018-07-30T20:10:52.173Z,51.30
2018-07-30T20:13:19.684Z,51.60
2018-07-30T20:15:47.384Z,51.40
2018-07-30T20:18:14.898Z,51.70
2018-07-30T20:20:42.288Z,52.20
2018-07-30T20:25:38.869Z,53.00
2018-07-30T20:28:06.980Z,53.00
2018-07-30T20:30:34.351Z,52.90
2018-07-30T20:33:02.555Z,53.10
2018-07-30T20:37:59.508Z,54.60
2018-07-30T20:40:27.312Z,55.40
2018-07-30T20:42:54.553Z,54.80
2018-07-30T20:45:22.248Z,55.80
2018-07-30T20:47:49.541Z,55.10
2018-07-30T20:50:16.738Z,55.30
2018-07-30T20:52:44.059Z,55.30
2018-07-30T20:55:11.536Z,55.40
2018-07-30T20:57:38.829Z,55.60
2018-07-30T21:00:06.007Z,55.80
2018-07-30T21:02:34.025Z,56.20
2018-07-30T21:05:01.285Z,56.40
2018-07-30T21:07:28.903Z,56.60
2018-07-30T21:09:57.029Z,56.70
2018-07-30T21:12:25.058Z,56.70
2018-07-30T21:14:52.962Z,57.00
2018-07-30T21:17:20.184Z,57.30
2018-07-30T21:19:48.432Z,57.20
2018-07-30T21:22:15.768Z,57.70
2018-07-30T21:24:43.820Z,57.70
2018-07-30T21:27:12.118Z,57.90
2018-07-30T21:29:39.374Z,57.70
2018-07-30T21:32:07.284Z,57.90
2018-07-30T21:34:34.547Z,58.20
2018-07-30T21:39:31.043Z,58.40
2018-07-30T21:41:59.332Z,58.50
2018-07-30T21:44:26.725Z,58.60
2018-07-30T21:46:54.616Z,58.40
2018-07-30T21:54:16.879Z,59.50
2018-07-30T21:56:44.088Z,59.70
2018-07-30T21:59:11.342Z,59.70
2018-07-30T22:01:38.596Z,59.80
2018-07-30T22:04:05.824Z,59.90
2018-07-30T22:06:33.720Z,60.30
2018-07-30T22:09:00.920Z,61.10
2018-07-30T22:11:28.139Z,61.70
2018-07-30T22:13:55.948Z,62.00
2018-07-30T22:16:23.112Z,62.50
2018-07-30T22:18:50.414Z,63.00
2018-07-30T22:21:17.680Z,63.30
2018-07-30T22:23:44.843Z,63.20
2018-07-30T22:26:12.011Z,63.80
2018-07-30T22:28:39.187Z,64.40
2018-07-30T22:33:33.662Z,64.60
2018-07-30T22:36:00.815Z,65.40
2018-07-30T22:38:27.989Z,66.30
2018-07-30T22:43:22.523Z,67.10
2018-07-30T22:45:49.758Z,67.20
2018-07-30T22:48:16.944Z,67.40
2018-07-30T22:50:44.217Z,68.10
2018-07-30T22:53:11.457Z,68.90
2018-07-30T22:55:38.652Z,69.10
2018-07-30T22:58:05.915Z,70.10
2018-07-30T23:00:34.128Z,70.60
2018-07-30T23:03:01.338Z,71.70
2018-07-30T23:05:28.581Z,72.20
2018-07-30T23:07:55.795Z,73.40
2018-07-30T23:10:23.015Z,73.20
2018-07-30T23:12:50.216Z,72.60
2018-07-30T23:15:17.433Z,72.00
2018-07-30T23:20:11.848Z,71.80
2018-07-30T23:25:06.266Z,72.40
2018-07-30T23:27:33.548Z,72.50
2018-07-30T23:30:00.708Z,73.20
2018-07-30T23:32:27.832Z,73.30
2018-07-30T23:34:54.953Z,74.00
2018-07-30T23:39:49.368Z,74.20
2018-07-30T23:47:11.196Z,75.10
2018-07-30T23:49:38.363Z,74.90
2018-07-30T23:52:05.551Z,75.20
2018-07-30T23:54:32.802Z,75.20
2018-07-30T23:57:00.109Z,74.80
2018-07-30T23:59:27.303Z,75.00
